Tiempo atmosférico en la estación meteorológica de Castuera , Badajoz (512 m.)



Fecha
DESCASC
Temp. máxima en grados centígrados (hora)
DESCASC
Temp. mínima en grados centígrados (hora)
DESCASC
Temp. media en grados centígrados
DESCASC
Racha de viento máxima en m/sg (hora)
DESCASC
Velocidad máxima media en intervalos de 10 minutos(hora)
DESCASC
Precipitaciones diarias en mm
DESCASC
Precipitaciones de 00:00 a 06:00 en mm
DESCASC
Precipitaciones de 06:00 a 12:00 en mm
DESCASC
Precipitaciones de 12:00 a 18:00 en mm
DESCASC
Precipitaciones de 18:00 a 24:00 en mm
DESCASC
16-01-2020 17 (15:00) 8.6 (08:10) 12.8 10 (14:40) 7.5 (14:40) 0 0 0 0 0
15-01-2020 14.4 (14:30) 7.5 (07:00) 10.9 13.33 (04:00) 8.61 (11:30) 0 0 0 0 0
14-01-2020 12.4 (15:40) 5.6 (07:20) 9 8.89 (23:20) 5.83 (23:59) 0 0 0 0 0
13-01-2020 12.5 (14:20) 4.7 (08:20) 8.6 6.67 (09:40) 5 (09:10) 0 0 0 0 0
12-01-2020 12.7 (15:10) 5.3 (00:00) 9 5 (15:40) 3.06 (15:40) 0 0 0 0 0
11-01-2020 12.9 (15:20) 5.9 (00:00) 9.4 9.17 (05:00) 5 (09:40) 0 0 0 0 0
10-01-2020 11.7 (16:30) 3.8 (00:00) 7.7 7.78 (19:20) 3.61 (19:20) 0 0 0 0 0
09-01-2020 13.7 (15:50) 5.6 (00:00) 9.6 4.17 (11:30) 2.78 (11:30) 0 0 0 0 0
08-01-2020 16 (15:40) 6.8 (00:00) 11.4 3.89 (13:30) 3.06 (17:10) 0 0 0 0 0
07-01-2020 14.8 (16:30) 6.1 (00:00) 10.5 4.72 (15:30) 3.61 (15:40) 0 0 0 0 0
06-01-2020 14.5 (17:20) 6.3 (00:00) 10.4 3.89 (04:30) 2.78 (16:30) 0 0 0 0 0
05-01-2020 13.5 (16:50) 4.7 (00:00) 9.1 4.72 (02:10) 3.33 (02:20) 0 0 0 0 0
04-01-2020 11.9 (16:10) 5.2 (00:00) 8.5 8.89 (12:10) 3.89 (11:40) 0 0 0 0 0
03-01-2020 11.8 (16:20) 6.8 (00:00) 9.3 5 (14:50) 2.78 (15:40) 0 0 0 0 0
02-01-2020 15.4 (16:10) 7.4 (00:00) 11.4 6.94 (07:40) 5.28 (07:40) 0 0 0 0 0
01-01-2020 15.5 (14:10) 6.6 (00:00) 11 5.28 (01:40) 3.61 (01:50) 0 0 0 0 0
31-12-2019 14.3 (15:20) 6.8 (00:00) 10.6 6.11 (00:20) 4.72 (00:20) 0 0 0 0 0
30-12-2019 15.7 (15:10) 5.7 (00:00) 10.7 6.11 (03:20) 4.17 (00:20) 0 0 0 0 0
29-12-2019 18.1 (15:50) 7.4 (00:00) 12.8 6.67 (04:50) 3.89 (11:50) 0 0 0 0 0
28-12-2019 19.1 (15:10) 8.5 (00:00) 13.8 6.39 (23:40) 4.44 (23:10) 0 0 0 0 0
27-12-2019 18.9 (15:50) 8.7 (00:00) 13.8 6.67 (05:30) 5.28 (07:50) 0 0 0 0 0
26-12-2019 16.7 (00:00) 10.7 (00:00) 13.7 5 (21:30) 2.78 (21:30) 0 0 0 0 0
25-12-2019 20.4 (16:00) 10.9 (00:00) 15.6 8.89 (07:40) 6.67 (07:50) 0 0 0 0 0
24-12-2019 20.7 (16:10) 7.7 (00:00) 14.2 10 (11:00) 6.94 (11:10) 0 0 0 0 0
23-12-2019 15.3 (16:10) 8 (00:00) 11.7 5.56 (00:50) 3.61 (14:50) 0 0 0 0 0
22-12-2019 15.2 (16:00) 10.7 (00:00) 12.9 12.5 (03:00) 7.5 (16:00) 0 0 0 0 0
21-12-2019 17.2 (15:30) 11.8 (00:00) 14.5 18.61 (16:30) 12.5 (16:30) 13.2 8.2 1.2 3.8 0
20-12-2019 15.5 (17:30) 13.4 (00:00) 14.4 20.56 (03:20) 15 (02:30) 17 11.2 3.4 0.2 2.2

Gráficas

Temp. máximas Temp. mínimas Temp. medias Precipitaciones Rachas de viento máximas Velocidades máximas media en intervalos de 10 minutos

Datos horarios

Fecha y hora oficial Temperatura (ºC) Velocidad del viento (km/h) Dirección del viento Racha (km/h) Dirección de racha Precipitación (mm) Presión (hPa) Tendencia (hPa) Humedad (%)
2020-01-18 23:00:00 10.4 22 Noroeste 45 Noroeste 0 -- -- 84
2020-01-18 22:00:00 11.4 31 Noroeste 47 Noroeste 0 -- -- 87
2020-01-18 21:00:00 11.8 13 Oeste 24 Oeste 0 -- -- 95
2020-01-18 20:00:00 11.7 12 Sur 20 Sudoeste 0 -- -- 93
2020-01-18 19:00:00 12.7 15 Sudoeste 21 Sudoeste 0 -- -- 94
2020-01-18 18:00:00 13.2 13 Sur 21 Sudoeste 0.2 -- -- 94
2020-01-18 17:00:00 12.7 10 Sudoeste 22 Sur 0 -- -- 97
2020-01-18 16:00:00 12.3 18 Sur 28 Sur 0 -- -- 95
2020-01-18 15:00:00 12 21 Sur 32 Sur 0.2 -- -- 94
2020-01-18 14:00:00 11.7 22 Sur 36 Sur 0 -- -- 92
2020-01-18 13:00:00 11.5 24 Sur 36 Sudeste 0 -- -- 93
2020-01-18 12:00:00 9.8 24 Sudeste 40 Sudeste 0.4 -- -- 95
2020-01-18 11:00:00 9.2 24 Sur 40 Sudeste 2.2 -- -- 94
2020-01-18 10:00:00 9.6 21 Sur 42 Sudeste 0.2 -- -- 88
2020-01-18 09:00:00 9.7 21 Sudeste 32 Sur 0 -- -- 86
2020-01-18 08:00:00 9.6 19 Sur 26 Sur 1.4 -- -- 89
2020-01-18 07:00:00 10.5 15 Sur 24 Sur 0 -- -- 80
2020-01-18 06:00:00 10.3 15 Sudeste 26 Sudeste 0 -- -- 75
2020-01-18 05:00:00 10.6 18 Sudeste 27 Sudeste 0 -- -- 73
2020-01-18 04:00:00 10.4 14 Sudeste 21 Sudeste 0 -- -- 75
2020-01-18 03:00:00 10.7 13 Sudeste 16 Sudeste 0 -- -- 73
2020-01-18 02:00:00 10.5 5 Sur 8 Sudeste 0 -- -- 75
2020-01-18 01:00:00 10.1 6 Sudeste 15 Sudeste 0 -- -- 76
2020-01-18 00:00:00 10 8 Sudeste 13 Sudeste 0 -- -- 82
2020-01-17 23:00:00 10.1 4 Sudeste 7 Sur 0 -- -- 80
2020-01-17 22:00:00 10.1 4 Sudeste 8 Sudeste 0 -- -- 83
2020-01-17 21:00:00 10 0 Calma 5 Norte 0 -- -- 86
2020-01-17 20:00:00 10.5 4 Nordeste 9 Nordeste 0 -- -- 82
2020-01-17 19:00:00 10.9 6 Nordeste 10 Nordeste 0 -- -- 78
2020-01-17 18:00:00 12.3 4 Norte 15 Noroeste 0 -- -- 71
2020-01-17 17:00:00 13.8 9 Noroeste 18 Noroeste 0 -- -- 63
2020-01-17 16:00:00 13.7 8 Norte 18 Noroeste 0 -- -- 66
2020-01-17 15:00:00 13.6 7 Noroeste 16 Noroeste 0 -- -- 68
2020-01-17 14:00:00 12.8 10 Noroeste 21 Oeste 0 -- -- 71
2020-01-17 13:00:00 12.9 9 Oeste 17 Oeste 0 -- -- 71
2020-01-17 12:00:00 12.6 9 Sudoeste 14 Sudoeste 0 -- -- 77
2020-01-17 11:00:00 10.6 11 Oeste 15 Oeste 0 -- -- 84
2020-01-17 10:00:00 9.7 0 Calma 5 Sudoeste 0 -- -- 94
2020-01-17 09:00:00 9.4 2 Oeste 8 Sudoeste 0 -- -- 93
2020-01-17 08:00:00 9.8 2 Sudoeste 9 Oeste 0 -- -- 92
2020-01-17 07:00:00 9.9 5 Sudoeste 11 Sur 0 -- -- 92
2020-01-17 06:00:00 9.5 7 Sur 18 Sudoeste 0 -- -- 90
2020-01-17 05:00:00 10.3 12 Sudoeste 21 Sur 0 -- -- 84
2020-01-17 04:00:00 10.6 15 Sur 20 Sur 0 -- -- 77
2020-01-17 03:00:00 10.6 9 Sur 21 Sur 0 -- -- 72
2020-01-17 02:00:00 10.8 13 Sur 24 Sudoeste 0 -- -- 61
2020-01-17 01:00:00 11.3 19 Sur 34 Sur 0 -- -- 54
2020-01-17 00:00:00 11.3 19 Sur 26 Sudoeste 0 -- -- 48
2020-01-16 23:00:00 11.5 18 Sur 31 Sur 0 -- -- 44
2020-01-16 22:00:00 11.2 17 Sur 26 Sur 0 -- -- 46
2020-01-16 21:00:00 10.7 14 Sudeste 23 Sur 0 -- -- 48
2020-01-16 20:00:00 11.2 14 Sur 22 Sur 0 -- -- 45
2020-01-16 19:00:00 12.2 14 Sur 20 Sur 0 -- -- 43
2020-01-16 18:00:00 13.8 17 Sur 30 Sudoeste 0 -- -- 38
2020-01-16 17:00:00 16.4 21 Sudoeste 33 Sur 0 -- -- 32
2020-01-16 16:00:00 16.8 24 Sudoeste 36 Sudoeste 0 -- -- 29
2020-01-16 15:00:00 17 23 Sur 36 Sudoeste 0 -- -- 33
2020-01-16 14:00:00 16.6 20 Sur 35 Sur 0 -- -- 34
2020-01-16 13:00:00 15.1 21 Sur 30 Sur 0 -- -- 43
2020-01-16 12:00:00 11.2 18 Sudeste 28 Sudeste 0 -- -- 65
2020-01-16 11:00:00 10.1 21 Sudeste 33 Sudeste 0 -- -- 70
2020-01-16 10:00:00 9.6 23 Sudeste 32 Sudeste 0 -- -- 81
2020-01-16 09:00:00 8.7 23 Sudeste 34 Sudeste 0 -- -- 90
2020-01-16 08:00:00 8.7 23 Sudeste 32 Sudeste 0 -- -- 90
2020-01-16 07:00:00 8.9 23 Sudeste 32 Sudeste 0 -- -- 90
2020-01-16 06:00:00 9.3 19 Sudeste 32 Sudeste 0 -- -- 88
2020-01-16 05:00:00 9.9 20 Sudeste 31 Sudeste 0 -- -- 86
2020-01-16 04:00:00 10.2 17 Sudeste 27 Sudeste 0 -- -- 86
2020-01-16 03:00:00 10.4 15 Sudeste 30 Sudeste 0 -- -- 86
2020-01-16 02:00:00 10.6 20 Sudeste 30 Sudeste 0 -- -- 86
2020-01-16 01:00:00 11 19 Sudeste 32 Sudeste 0 -- -- 85
2020-01-16 00:00:00 11 18 Sudeste 33 Sudeste 0 -- -- 85
2020-01-15 23:00:00 10.6 15 Sur 24 Sur 0 -- -- 87
2020-01-15 22:00:00 10.7 14 Sur 28 Sur 0 -- -- 86
2020-01-15 21:00:00 11.3 19 Sur 31 Sudeste 0 -- -- 86
2020-01-15 20:00:00 11.7 13 Sur 26 Sur 0 -- -- 80
2020-01-15 19:00:00 12 14 Sur 28 Sur 0 -- -- 76
2020-01-15 18:00:00 13 18 Sur 33 Sur 0 -- -- 72
2020-01-15 17:00:00 13.9 24 Sudoeste 34 Sudoeste 0 -- -- 67
2020-01-15 16:00:00 14.1 23 Sur 35 Sudoeste 0 -- -- 66
2020-01-15 15:00:00 14.1 23 Sudoeste 37 Sur 0 -- -- 64
2020-01-15 14:00:00 13.8 27 Sur 39 Sudoeste 0 -- -- 64
2020-01-15 13:00:00 13.1 29 Sur 40 Sur 0 -- -- 67
2020-01-15 12:00:00 10.9 28 Sur 44 Sur 0 -- -- 73
2020-01-15 11:00:00 9.4 25 Sur 42 Sur 0 -- -- 74
2020-01-15 10:00:00 8.5 24 Sudeste 40 Sudeste 0 -- -- 73
2020-01-15 09:00:00 7.8 23 Sur 41 Sur 0 -- -- 73
2020-01-15 08:00:00 7.9 23 Sudeste 40 Sudeste 0 -- -- 71
2020-01-15 07:00:00 7.5 22 Sudeste 38 Sudeste 0 -- -- 72
2020-01-15 06:00:00 8.2 23 Sudeste 35 Sudeste 0 -- -- 69
2020-01-15 05:00:00 8.4 25 Sudeste 42 Sur 0 -- -- 68
2020-01-15 04:00:00 9 23 Sudeste 48 Sudeste 0 -- -- 66
2020-01-15 03:00:00 8.3 22 Sur 36 Sur 0 -- -- 73
2020-01-15 02:00:00 8.3 22 Sur 31 Sur 0 -- -- 74
2020-01-15 01:00:00 8.3 21 Sur 35 Sur 0 -- -- 72
2020-01-15 00:00:00 8.3 21 Sur 32 Sur 0 -- -- 71
2020-01-14 23:00:00 8.6 20 Sur 31 Sudeste 0 -- -- 68
2020-01-14 22:00:00 9 17 Sur 27 Sudeste 0 -- -- 67
2020-01-14 21:00:00 9.1 15 Sur 25 Sur 0 -- -- 68
2020-01-14 20:00:00 9.9 18 Sur 25 Sur 0 -- -- 65
2020-01-14 19:00:00 10.1 10 Sur 20 Sur 0 -- -- 63
2020-01-14 18:00:00 10.7 10 Sur 15 Sudoeste 0 -- -- 60
2020-01-14 17:00:00 11.3 12 Sudoeste 21 Sudeste 0 -- -- 59
2020-01-14 16:00:00 12.4 14 Sudeste 21 Sudeste 0 -- -- 55
2020-01-14 15:00:00 12.1 10 Sudeste 17 Sudeste 0 -- -- 53
2020-01-14 14:00:00 12 9 Sudeste 14 Sudeste 0 -- -- 53
2020-01-14 13:00:00 11.6 9 Sur 17 Sudeste 0 -- -- 59
2020-01-14 12:00:00 10.2 12 Sudeste 19 Sudeste 0 -- -- 59
2020-01-14 11:00:00 8.8 9 Sudeste 16 Sudeste 0 -- -- 64
2020-01-14 10:00:00 6.9 12 Sudeste 17 Sudeste 0 -- -- 72
2020-01-14 09:00:00 5.7 9 Sudeste 16 Sudeste 0 -- -- 75
2020-01-14 08:00:00 5.6 11 Sudeste 19 Sudeste 0 -- -- 75
2020-01-14 07:00:00 5.7 10 Sudeste 15 Sudeste 0 -- -- 75
2020-01-14 06:00:00 6 9 Sudeste 12 Sudeste 0 -- -- 73
2020-01-14 05:00:00 6.4 10 Sudeste 13 Sudeste 0 -- -- 72
2020-01-14 04:00:00 6.3 6 Sudeste 10 Sudeste 0 -- -- 74
2020-01-14 03:00:00 6 7 Sudeste 10 Sudeste 0 -- -- 77
2020-01-14 02:00:00 6.4 6 Sudeste 11 Sudeste 0 -- -- 72
2020-01-14 01:00:00 6.6 6 Sudeste 9 Sudeste 0 -- -- 65
2020-01-14 00:00:00 6.3 4 Sur 8 Sudeste 0 -- -- 66
2020-01-13 23:00:00 7.8 6 Sudeste 19 Sudeste 0 -- -- 62
2020-01-13 22:00:00 7.6 9 Sudeste 18 Sudeste 0 -- -- 64
2020-01-13 21:00:00 7.8 7 Sudeste 12 Sudeste 0 -- -- 64
2020-01-13 20:00:00 8.1 2 Sudeste 6 Sur 0 -- -- 61
2020-01-13 19:00:00 8.9 0 Calma 12 Este 0 -- -- 59
2020-01-13 18:00:00 10.3 5 Nordeste 13 Norte 0 -- -- 55
2020-01-13 17:00:00 11.9 8 Norte 16 Norte 0 -- -- 51
2020-01-13 16:00:00 12.4 6 Oeste 17 Sudoeste 0 -- -- 46
2020-01-13 15:00:00 12.1 8 Oeste 17 Oeste 0 -- -- 43
2020-01-13 14:00:00 12.3 4 Sudoeste 17 Sudeste 0 -- -- 52
2020-01-13 13:00:00 11 12 Sudeste 19 Sudeste 0 -- -- 57
2020-01-13 12:00:00 10 11 Sudeste 23 Sudeste 0 -- -- 59
2020-01-13 11:00:00 7.8 15 Sudeste 22 Sudeste 0 -- -- 62
2020-01-13 10:00:00 6.9 15 Sudeste 24 Sudeste 0 -- -- 66
2020-01-13 09:00:00 6.4 17 Sudeste 22 Sudeste 0 -- -- 67
2020-01-13 08:00:00 5.2 0 Calma 14 Sudeste 0 -- -- 70
2020-01-13 07:00:00 6 8 Sudeste 14 Sudeste 0 -- -- 68
2020-01-13 06:00:00 5.5 2 Sudeste 15 Sudeste 0 -- -- 68
2020-01-13 05:00:00 6.9 8 Sudeste 22 Este 0 -- -- 63
2020-01-13 04:00:00 7.7 15 Sudeste 20 Sudeste 0 -- -- 55
2020-01-13 03:00:00 7.5 13 Sudeste 19 Sudeste 0 -- -- 56
2020-01-13 02:00:00 7.9 14 Sudeste 18 Sudeste 0 -- -- 55
2020-01-13 01:00:00 6.6 8 Sudeste 13 Sudeste 0 -- -- 55
2020-01-13 00:00:00 6.8 3 Sur 4 Este 0 -- -- 56
2020-01-12 23:00:00 6.9 0 Calma 2 Este 0 -- -- 58
2020-01-12 22:00:00 7.2 2 Sudeste 9 Nordeste 0 -- -- 59
2020-01-12 21:00:00 7.8 4 Nordeste 7 Este 0 -- -- 56
2020-01-12 20:00:00 8.6 6 Nordeste 11 Nordeste 0 -- -- 54
2020-01-12 19:00:00 8.8 6 Nordeste 8 Nordeste 0 -- -- 55
2020-01-12 18:00:00 11.2 4 Nordeste 13 Norte 0 -- -- 49
2020-01-12 17:00:00 11.9 8 Nordeste 17 Norte 0 -- -- 47
2020-01-12 16:00:00 12.5 9 Norte 18 Norte 0 -- -- 52
2020-01-12 15:00:00 12.4 8 Nordeste 14 Nordeste 0 -- -- 47
2020-01-12 14:00:00 12.4 5 Norte 10 Norte 0 -- -- 53
2020-01-12 13:00:00 12.1 3 Sudoeste 9 Sur 0 -- -- 50
2020-01-12 12:00:00 11.3 6 Sur 10 Sur 0 -- -- 54
2020-01-12 11:00:00 8.5 0 Calma 6 Norte 0 -- -- 65
2020-01-12 10:00:00 8.5 4 Sudeste 9 Sudeste 0 -- -- 60
2020-01-12 09:00:00 6.3 6 Sudeste 10 Sudeste 0 -- -- 63
2020-01-12 08:00:00 5.7 5 Sudeste 8 Sudeste 0 -- -- 65
2020-01-12 07:00:00 5.6 0 Calma 2 Norte 0 -- -- 65
2020-01-12 06:00:00 5.9 0 Calma 2 Noroeste 0 -- -- 63
2020-01-12 05:00:00 6.2 0 Calma 3 Sudeste 0 -- -- 62
2020-01-12 04:00:00 6.6 3 Sudeste 4 Nordeste 0 -- -- 60
2020-01-12 03:00:00 6.4 0 Calma 6 Sudeste 0 -- -- 61
2020-01-12 02:00:00 6.1 3 Sur 4 Sudeste 0 -- -- 64
2020-01-12 01:00:00 6.1 0 Calma 4 Sur 0 -- -- 65
2020-01-12 00:00:00 7.2 3 Nordeste 6 Nordeste 0 -- -- 60
2020-01-11 23:00:00 7.3 5 Nordeste 7 Nordeste 0 -- -- 61
2020-01-11 22:00:00 8 6 Nordeste 8 Nordeste 0 -- -- 59
2020-01-11 21:00:00 7.5 2 Nordeste 6 Este 0 -- -- 61
2020-01-11 20:00:00 9.3 4 Este 8 Nordeste 0 -- -- 54
2020-01-11 19:00:00 9.9 3 Nordeste 8 Este 0 -- -- 51
2020-01-11 18:00:00 11.5 4 Este 13 Nordeste 0 -- -- 47
2020-01-11 17:00:00 12.4 9 Nordeste 18 Este 0 -- -- 45
2020-01-11 16:00:00 12.7 9 Nordeste 17 Norte 0 -- -- 42
2020-01-11 15:00:00 12.6 8 Nordeste 18 Este 0 -- -- 43
2020-01-11 14:00:00 12.3 5 Este 15 Este 0 -- -- 44
2020-01-11 13:00:00 11.6 5 Este 13 Sudeste 0 -- -- 49
2020-01-11 12:00:00 10 5 Este 22 Sudeste 0 -- -- 54
2020-01-11 11:00:00 7.9 12 Sudeste 31 Este 0 -- -- 56
2020-01-11 10:00:00 6.9 11 Este 30 Sudeste 0 -- -- 57
2020-01-11 09:00:00 6 12 Este 23 Este 0 -- -- 60
2020-01-11 08:00:00 6.3 14 Este 24 Este 0 -- -- 58
2020-01-11 07:00:00 6.4 13 Este 23 Este 0 -- -- 57
2020-01-11 06:00:00 6.3 9 Este 30 Nordeste 0 -- -- 57
2020-01-11 05:00:00 7.1 15 Este 33 Este 0 -- -- 54
2020-01-11 04:00:00 7 7 Este 16 Este 0 -- -- 54
2020-01-11 03:00:00 7.3 6 Este 13 Este 0 -- -- 52
2020-01-11 02:00:00 7.7 7 Este 14 Este 0 -- -- 50
2020-01-11 01:00:00 8.1 7 Este 14 Este 0 -- -- 50
2020-01-11 00:00:00 7.8 3 Nordeste 12 Nordeste 0 -- -- 51
2020-01-10 23:00:00 8.9 8 Sudeste 22 Este 0 -- -- 47
2020-01-10 22:00:00 8.9 8 Sudeste 22 Este 0 -- -- 50
2020-01-10 21:00:00 9.5 8 Este 26 Este 0 -- -- 47
2020-01-10 20:00:00 9.6 6 Sudeste 28 Este 0 -- -- 48
2020-01-10 19:00:00 9.4 6 Este 20 Este 0 -- -- 61
2020-01-10 18:00:00 10.9 2 Nordeste 11 Norte 0 -- -- 65
2020-01-10 17:00:00 10.6 5 Norte 18 Norte 0 -- -- 68
2020-01-10 16:00:00 11.5 8 Norte 17 Nordeste 0 -- -- 67
2020-01-10 15:00:00 10.6 6 Norte 19 Nordeste 0 -- -- 74
2020-01-10 14:00:00 9.9 10 Nordeste 17 Nordeste 0 -- -- 74
2020-01-10 13:00:00 9 4 Norte 10 Oeste 0 -- -- 75
2020-01-10 12:00:00 7.3 4 Oeste 12 Norte 0 -- -- 78
2020-01-10 11:00:00 6.5 6 Norte 9 Norte 0 -- -- 79
2020-01-10 10:00:00 5.1 0 Calma 3 Sudeste 0 -- -- 91
2020-01-10 09:00:00 3.9 0 Calma 5 Oeste 0 -- -- 94
2020-01-10 08:00:00 4.5 3 Sur 9 Sur 0 -- -- 94
2020-01-10 07:00:00 5.1 3 Sur 9 Sudoeste 0 -- -- 94
2020-01-10 06:00:00 6 3 Sudoeste 6 Sudoeste 0 -- -- 94
2020-01-10 05:00:00 7 3 Sur 6 Sudeste 0 -- -- 93
2020-01-10 04:00:00 8 3 Sudoeste 9 Oeste 0 -- -- 92
2020-01-10 03:00:00 8.6 5 Noroeste 13 Noroeste 0 -- -- 94
2020-01-10 02:00:00 9.1 3 Noroeste 9 Oeste 0 -- -- 92
2020-01-10 01:00:00 9.4 2 Oeste 6 Sur 0 -- -- 88
2020-01-10 00:00:00 9.3 3 Sudoeste 6 Sur 0 -- -- 83
2020-01-09 23:00:00 8.9 4 Sur 6 Sudeste 0 -- -- 80
2020-01-09 22:00:00 8.9 0 Calma 5 Oeste 0 -- -- 79
2020-01-09 21:00:00 8.9 2 Oeste 5 Oeste 0 -- -- 80
2020-01-09 20:00:00 9.7 2 Noroeste 10 Nordeste 0 -- -- 80
2020-01-09 19:00:00 10 6 Nordeste 9 Nordeste 0 -- -- 79
2020-01-09 18:00:00 12.3 5 Norte 14 Norte 0 -- -- 72
2020-01-09 17:00:00 13.5 5 Oeste 10 Oeste 0 -- -- 64
2020-01-09 16:00:00 13.4 6 Oeste 12 Sur 0 -- -- 63
2020-01-09 15:00:00 12.5 4 Norte 14 Noroeste 0 -- -- 71
2020-01-09 14:00:00 11.9 8 Norte 15 Noroeste 0 -- -- 73
2020-01-09 13:00:00 10.7 9 Noroeste 14 Noroeste 0 -- -- 75
2020-01-09 12:00:00 11 7 Sur 15 Sur 0 -- -- 73
2020-01-09 11:00:00 9 8 Sur 12 Sur 0 -- -- 83
2020-01-09 10:00:00 6.7 0 Calma 4 Sur 0 -- -- 86
2020-01-09 09:00:00 6.3 0 Calma 8 Sudeste 0 -- -- 88
2020-01-09 08:00:00 5.8 0 Calma 3 Sudeste 0 -- -- 89
2020-01-09 07:00:00 5.7 0 Calma 4 Sur 0 -- -- 90
2020-01-09 06:00:00 6.7 0 Calma 4 Este 0 -- -- 88
2020-01-09 05:00:00 6.6 0 Calma 5 Sudeste 0 -- -- 90
2020-01-09 04:00:00 6.5 3 Sudeste 4 Sudeste 0 -- -- 90
2020-01-09 03:00:00 6.6 0 Calma 5 Sudeste 0 -- -- 93
2020-01-09 02:00:00 6.3 3 Sur 4 Sudeste 0 -- -- 93
2020-01-09 01:00:00 7.1 0 Calma 4 Sudeste 0 -- -- 91
2020-01-09 00:00:00 7.3 0 Calma 3 Sur 0 -- -- 87
2020-01-08 23:00:00 7.8 2 Sudeste 5 Sudeste 0 -- -- 84
2020-01-08 22:00:00 8.1 0 Calma 6 Nordeste 0 -- -- 80
2020-01-08 21:00:00 9.2 0 Calma 11 Nordeste 0 -- -- 73
2020-01-08 20:00:00 9.9 4 Nordeste 11 Norte 0 -- -- 74
2020-01-08 19:00:00 10.9 8 Nordeste 13 Nordeste 0 -- -- 67
2020-01-08 18:00:00 12.9 9 Nordeste 13 Nordeste 0 -- -- 64
2020-01-08 17:00:00 15.2 8 Nordeste 13 Nordeste 0 -- -- 59
2020-01-08 16:00:00 15.7 9 Nordeste 12 Nordeste 0 -- -- 59
2020-01-08 15:00:00 15.4 3 Norte 9 Norte 0 -- -- 58
2020-01-08 14:00:00 14.2 3 Norte 14 Oeste 0 -- -- 63
2020-01-08 13:00:00 13.5 3 Oeste 8 Sudoeste 0 -- -- 57
2020-01-08 12:00:00 12 4 Sur 9 Sur 0 -- -- 68
2020-01-08 11:00:00 8.9 3 Noroeste 4 Noroeste 0 -- -- 78
2020-01-08 10:00:00 8.1 0 Calma 5 Norte 0 -- -- 72
2020-01-08 09:00:00 6.9 -- -- -- -- 0 -- -- 73
2020-01-08 08:00:00 7 0 Calma 2 Norte 0 -- -- 75
2020-01-08 07:00:00 7.4 0 Calma 4 Sudeste 0 -- -- 72
2020-01-08 06:00:00 7.5 3 Sudeste 8 Sudeste 0 -- -- 72
2020-01-08 05:00:00 7.5 0 Calma 3 Este 0 -- -- 73
2020-01-08 04:00:00 8 0 Calma 3 Sudeste 0 -- -- 71
2020-01-08 03:00:00 8 2 Sudeste 5 Sur 0 -- -- 72
2020-01-08 02:00:00 9.2 2 Sudeste 11 Nordeste 0 -- -- 65
2020-01-08 01:00:00 9.1 4 Nordeste 5 Nordeste 0 -- -- 67
2020-01-08 00:00:00 8.4 3 Sudeste 5 Sudeste 0 -- -- 78
2020-01-07 23:00:00 8.8 0 Calma 5 Nordeste 0 -- -- 72
2020-01-07 22:00:00 9.8 0 Calma 8 Nordeste 0 -- -- 68
2020-01-07 21:00:00 10.9 7 Nordeste 12 Este 0 -- -- 66
2020-01-07 20:00:00 10.8 8 Nordeste 12 Nordeste 0 -- -- 65
2020-01-07 19:00:00 11.3 7 Nordeste 10 Nordeste 0 -- -- 63
2020-01-07 18:00:00 13.5 4 Nordeste 8 Norte 0 -- -- 60
2020-01-07 17:00:00 14.8 4 Norte 14 Nordeste 0 -- -- 52
2020-01-07 16:00:00 14.4 10 Nordeste 17 Nordeste 0 -- -- 52
2020-01-07 15:00:00 14.3 11 Nordeste 16 Nordeste 0 -- -- 56
2020-01-07 14:00:00 13.3 9 Norte 13 Norte 0 -- -- 63
2020-01-07 13:00:00 12.8 5 Norte 9 Norte 0 -- -- 66
2020-01-07 12:00:00 11.8 3 Sudoeste 5 Sudoeste 0 -- -- 67
2020-01-07 11:00:00 10.2 0 Calma 5 Noroeste 0 -- -- 75
2020-01-07 10:00:00 8.6 0 Calma 6 Sudeste 0 -- -- 77
2020-01-07 09:00:00 6.1 0 Calma 3 Sur 0 -- -- 86
2020-01-07 08:00:00 6.3 0 Calma 5 Nordeste 0 -- -- 84
2020-01-07 07:00:00 6.4 3 Nordeste 8 Nordeste 0 -- -- 80
2020-01-07 06:00:00 6.7 5 Sudeste 7 Sudeste 0 -- -- 79
2020-01-07 05:00:00 7.5 0 Calma 8 Nordeste 0 -- -- 72
2020-01-07 04:00:00 8.7 5 Sudeste 10 Sudeste 0 -- -- 63
2020-01-07 03:00:00 7.3 0 Calma 4 Sudeste 0 -- -- 78
2020-01-07 02:00:00 7.3 2 Nordeste 6 Nordeste 0 -- -- 80
2020-01-07 01:00:00 8.3 0 Calma 8 Sudeste 0 -- -- 75
2020-01-07 00:00:00 7.7 5 Sudeste 7 Sudeste 0 -- -- 79
2020-01-06 23:00:00 8.6 3 Nordeste 11 Nordeste 0 -- -- 78
2020-01-06 22:00:00 8.4 7 Nordeste 10 Nordeste 0 -- -- 78
2020-01-06 21:00:00 9.2 5 Nordeste 9 Nordeste 0 -- -- 70
2020-01-06 20:00:00 9.3 7 Nordeste 9 Nordeste 0 -- -- 69
2020-01-06 19:00:00 10.4 7 Nordeste 10 Nordeste 0 -- -- 66
2020-01-06 18:00:00 14.1 0 Calma 5 Sur 0 -- -- 56
2020-01-06 17:00:00 13.8 2 Norte 14 Norte 0 -- -- 55
2020-01-06 16:00:00 13.5 7 Nordeste 12 Nordeste 0 -- -- 63
2020-01-06 15:00:00 13.6 6 Norte 10 Norte 0 -- -- 66
2020-01-06 14:00:00 12.7 5 Norte 9 Norte 0 -- -- 68
2020-01-06 13:00:00 11.4 2 Sudoeste 8 Oeste 0 -- -- 71
2020-01-06 12:00:00 10.7 4 Sudoeste 10 Sur 0 -- -- 70
2020-01-06 11:00:00 8.4 0 Calma 5 Norte 0 -- -- 77
2020-01-06 10:00:00 6.5 4 Norte 9 Sudeste 0 -- -- 81